createdAt,value
2022-12-03T00:00:36.553Z,100294.59
2022-12-03T00:03:04.576Z,100291.94
2022-12-03T00:05:32.388Z,100294.69
2022-12-03T00:08:00.082Z,100301.16
2022-12-03T00:10:28.046Z,100308.41
2022-12-03T00:12:55.607Z,100309.81
2022-12-03T00:15:24.226Z,100312.47
2022-12-03T00:17:52.158Z,100309.81
2022-12-03T00:20:23.153Z,100315.91
2022-12-03T00:22:51.004Z,100313.50
2022-12-03T00:25:18.959Z,100307.28
2022-12-03T00:27:47.094Z,100310.50
2022-12-03T00:30:14.745Z,100320.31
2022-12-03T00:32:42.635Z,100323.53
2022-12-03T00:35:10.434Z,100319.94
2022-12-03T00:37:38.076Z,100321.59
2022-12-03T00:40:07.099Z,100323.56
2022-12-03T00:42:34.693Z,100324.25
2022-12-03T00:45:02.359Z,100324.25
2022-12-03T00:47:30.289Z,100333.47
2022-12-03T00:49:57.900Z,100322.03
2022-12-03T00:52:25.464Z,100330.16
2022-12-03T00:54:53.790Z,100324.38
2022-12-03T00:57:21.941Z,100327.84
2022-12-03T00:59:49.650Z,100323.09
2022-12-03T01:02:17.572Z,100321.47
2022-12-03T01:04:45.384Z,100319.72
2022-12-03T01:07:12.977Z,100316.88
2022-12-03T01:09:41.097Z,100318.00
2022-12-03T01:12:08.814Z,100317.56
2022-12-03T01:14:36.470Z,100316.97
2022-12-03T01:17:04.334Z,100327.34
2022-12-03T01:19:32.058Z,100319.97
2022-12-03T01:21:59.646Z,100313.28
2022-12-03T01:24:27.917Z,100318.13
2022-12-03T01:26:55.458Z,100322.41
2022-12-03T01:29:23.761Z,100318.37
2022-12-03T01:31:51.693Z,100327.34
2022-12-03T01:34:19.338Z,100330.00
2022-12-03T01:36:47.155Z,100327.59
2022-12-03T01:39:15.029Z,100336.59
2022-12-03T01:41:42.686Z,100340.53
2022-12-03T01:44:23.565Z,100337.62
2022-12-03T01:46:53.550Z,100337.88
2022-12-03T01:49:26.856Z,100339.13
2022-12-03T01:51:55.544Z,100334.97
2022-12-03T01:54:31.398Z,100339.38
2022-12-03T01:56:59.341Z,100333.72
2022-12-03T01:59:35.221Z,100334.75
2022-12-03T02:02:24.415Z,100337.28
2022-12-03T02:04:52.961Z,100334.06
2022-12-03T02:07:26.906Z,100334.50
2022-12-03T02:09:56.749Z,100335.22
2022-12-03T02:12:29.688Z,100333.81
2022-12-03T02:14:57.599Z,100330.59
2022-12-03T02:17:25.909Z,100331.06
2022-12-03T02:19:54.343Z,100328.87
2022-12-03T02:22:51.895Z,100328.63
2022-12-03T02:25:23.627Z,100330.69
2022-12-03T02:27:51.295Z,100326.00
2022-12-03T02:30:21.315Z,100330.22
2022-12-03T02:32:49.925Z,100328.63
2022-12-03T02:35:20.525Z,100336.03
2022-12-03T02:37:50.711Z,100330.59
2022-12-03T02:40:21.175Z,100329.66
2022-12-03T02:42:49.918Z,100334.63
2022-12-03T02:45:24.448Z,100336.03
2022-12-03T02:47:57.864Z,100333.47
2022-12-03T02:50:33.989Z,100340.41
2022-12-03T02:53:03.755Z,100328.63
2022-12-03T02:55:36.759Z,100340.88
2022-12-03T02:58:05.796Z,100335.22
2022-12-03T03:00:34.783Z,100334.19
2022-12-03T03:03:04.501Z,100323.44
2022-12-03T03:05:33.036Z,100322.97
2022-12-03T03:08:01.656Z,100331.31
2022-12-03T03:10:29.748Z,100329.09
2022-12-03T03:12:57.735Z,100326.19
2022-12-03T03:15:25.588Z,100331.84
2022-12-03T03:17:53.302Z,100336.28
2022-12-03T03:20:21.266Z,100337.75
2022-12-03T03:22:49.184Z,100333.97
2022-12-03T03:25:19.141Z,100337.75
2022-12-03T03:27:47.028Z,100336.38
2022-12-03T03:30:15.292Z,100337.97
2022-12-03T03:32:43.129Z,100338.69
2022-12-03T03:35:11.172Z,100338.31
2022-12-03T03:37:39.251Z,100336.72
2022-12-03T03:40:07.973Z,100331.53
2022-12-03T03:42:35.870Z,100329.44
2022-12-03T03:45:05.928Z,100330.12
2022-12-03T03:47:33.674Z,100327.47
2022-12-03T03:50:01.955Z,100335.56
2022-12-03T03:52:30.061Z,100332.78
2022-12-03T03:54:57.900Z,100338.78
2022-12-03T03:57:25.525Z,100333.94
2022-12-03T03:59:53.637Z,100331.19
2022-12-03T04:02:23.390Z,100332.44
2022-12-03T04:04:51.808Z,100330.81
2022-12-03T04:07:19.850Z,100332.69
2022-12-03T04:09:47.483Z,100333.00
2022-12-03T04:12:15.314Z,100336.94
2022-12-03T04:14:42.870Z,100344.00
2022-12-03T04:17:10.470Z,100334.75
2022-12-03T04:19:38.366Z,100335.34
2022-12-03T04:22:05.957Z,100328.63
2022-12-03T04:24:33.572Z,100327.84
2022-12-03T04:27:01.554Z,100329.91
2022-12-03T04:29:29.290Z,100326.53
2022-12-03T04:31:56.930Z,100331.06
2022-12-03T04:34:24.991Z,100335.31
2022-12-03T04:36:52.562Z,100347.69
2022-12-03T04:39:20.444Z,100336.84
2022-12-03T04:41:48.344Z,100336.50
2022-12-03T04:44:16.040Z,100334.41
2022-12-03T04:46:43.728Z,100334.41
2022-12-03T04:49:13.601Z,100330.34
2022-12-03T04:51:41.246Z,100339.47
2022-12-03T04:54:08.892Z,100338.19
2022-12-03T04:56:37.669Z,100336.03
2022-12-03T04:59:10.049Z,100332.81
2022-12-03T05:01:40.960Z,100333.16
2022-12-03T05:04:08.619Z,100342.81
2022-12-03T05:06:36.237Z,100344.66
2022-12-03T05:09:04.575Z,100344.22
2022-12-03T05:11:32.210Z,100341.09
2022-12-03T05:13:59.783Z,100344.91
2022-12-03T05:16:29.640Z,100328.87
2022-12-03T05:18:57.287Z,100337.16
2022-12-03T05:21:24.874Z,100334.03
2022-12-03T05:23:52.849Z,100336.25
2022-12-03T05:26:20.600Z,100342.94
2022-12-03T05:28:48.451Z,100349.97
2022-12-03T05:31:16.611Z,100350.22
2022-12-03T05:33:44.698Z,100349.75
2022-12-03T05:36:12.368Z,100340.78
2022-12-03T05:38:40.389Z,100345.72
2022-12-03T05:41:08.022Z,100339.84
2022-12-03T05:43:35.707Z,100348.16
2022-12-03T05:46:03.669Z,100344.81
2022-12-03T05:48:31.398Z,100347.56
2022-12-03T05:50:59.108Z,100339.84
2022-12-03T05:53:27.014Z,100349.66
2022-12-03T05:55:54.623Z,100354.84
2022-12-03T05:58:22.478Z,100351.25
2022-12-03T06:00:50.528Z,100367.53
2022-12-03T06:03:18.700Z,100356.13
2022-12-03T06:05:46.402Z,100362.84
2022-12-03T06:08:14.192Z,100362.91
2022-12-03T06:10:42.200Z,100371.03
2022-12-03T06:13:09.853Z,100371.12
2022-12-03T06:15:43.531Z,100370.44
2022-12-03T06:18:12.015Z,100380.63
2022-12-03T06:20:39.671Z,100375.06
2022-12-03T06:23:07.321Z,100383.34
2022-12-03T06:25:35.397Z,100377.47
2022-12-03T06:28:03.176Z,100363.38
2022-12-03T06:30:31.011Z,100359.47
2022-12-03T06:32:58.977Z,100372.63
2022-12-03T06:35:26.590Z,100365.72
2022-12-03T06:37:54.188Z,100363.75
2022-12-03T06:40:22.194Z,100366.16
2022-12-03T06:42:52.697Z,100362.37
2022-12-03T06:45:20.542Z,100367.19
2022-12-03T06:47:48.465Z,100370.78
2022-12-03T06:50:16.128Z,100376.78
2022-12-03T06:52:43.757Z,100370.44
2022-12-03T06:55:11.689Z,100380.16
2022-12-03T06:57:39.334Z,100375.50
2022-12-03T07:00:07.776Z,100381.28
2022-12-03T07:02:36.036Z,100376.34
2022-12-03T07:05:04.288Z,100381.66
2022-12-03T07:07:32.310Z,100370.69
2022-12-03T07:10:00.291Z,100367.78
2022-12-03T07:12:28.149Z,100377.97
2022-12-03T07:14:56.384Z,100379.56
2022-12-03T07:17:24.530Z,100376.34
2022-12-03T07:19:52.122Z,100380.03
2022-12-03T07:22:20.577Z,100376.69
2022-12-03T07:24:49.043Z,100383.63
2022-12-03T07:27:16.684Z,100383.84
2022-12-03T07:29:44.394Z,100377.34
2022-12-03T07:32:12.706Z,100377.47
2022-12-03T07:34:40.954Z,100374.59
2022-12-03T07:37:08.576Z,100372.97
2022-12-03T07:39:36.528Z,100374.00
2022-12-03T07:42:04.438Z,100372.66
2022-12-03T07:44:32.096Z,100376.91
2022-12-03T07:47:00.140Z,100384.28
2022-12-03T07:49:27.947Z,100389.84
2022-12-03T07:51:55.860Z,100381.84
2022-12-03T07:54:24.510Z,100389.72
2022-12-03T07:56:55.442Z,100391.09
2022-12-03T07:59:25.929Z,100389.94
2022-12-03T08:01:53.627Z,100392.66
2022-12-03T08:04:21.887Z,100400.66
2022-12-03T08:06:49.565Z,100398.66
2022-12-03T08:09:17.198Z,100396.22
2022-12-03T08:11:47.788Z,100394.06
2022-12-03T08:14:20.061Z,100383.50
2022-12-03T08:16:48.289Z,100378.63
2022-12-03T08:19:17.720Z,100383.06
2022-12-03T08:21:45.660Z,100385.56
2022-12-03T08:24:16.033Z,100380.81
2022-12-03T08:26:49.470Z,100386.41
2022-12-03T08:29:19.627Z,100382.34
2022-12-03T08:31:52.646Z,100379.34
2022-12-03T08:34:27.755Z,100389.56
2022-12-03T08:37:01.012Z,100392.34
2022-12-03T08:39:31.985Z,100395.31
2022-12-03T08:42:21.180Z,100398.56
2022-12-03T08:44:49.206Z,100393.47
2022-12-03T08:47:20.599Z,100401.72
2022-12-03T08:49:58.399Z,100388.59
2022-12-03T08:52:35.677Z,100384.31
2022-12-03T08:55:37.450Z,100394.09
2022-12-03T08:58:43.391Z,100376.50
2022-12-03T09:01:11.076Z,100393.06
2022-12-03T09:03:51.694Z,100388.84
2022-12-03T09:06:19.481Z,100396.53
2022-12-03T09:08:47.561Z,100393.37
2022-12-03T09:11:15.466Z,100401.34
2022-12-03T09:13:43.134Z,100399.09
2022-12-03T09:16:11.049Z,100396.06
2022-12-03T09:18:38.703Z,100400.72
2022-12-03T09:21:06.560Z,100403.56
2022-12-03T09:23:34.462Z,100402.50
2022-12-03T09:26:02.091Z,100391.56
2022-12-03T09:28:29.642Z,100398.19
2022-12-03T09:30:57.736Z,100399.28
2022-12-03T09:33:25.269Z,100399.34
2022-12-03T09:35:53.055Z,100398.75
2022-12-03T09:38:21.466Z,100402.56
2022-12-03T09:40:49.143Z,100391.84
2022-12-03T09:43:16.876Z,100388.31
2022-12-03T09:45:48.599Z,100379.87
2022-12-03T09:48:18.768Z,100379.37
2022-12-03T09:50:48.344Z,100383.84
2022-12-03T09:53:21.160Z,100380.63
2022-12-03T09:55:49.497Z,100373.34
2022-12-03T09:58:18.833Z,100370.50
2022-12-03T10:00:50.977Z,100366.34
2022-12-03T10:03:29.769Z,100357.09
2022-12-03T10:05:57.802Z,100341.25
2022-12-03T10:08:30.862Z,100348.28
2022-12-03T10:11:00.365Z,100340.31
2022-12-03T10:13:30.457Z,100338.66
2022-12-03T10:16:00.321Z,100339.34
2022-12-03T10:18:32.782Z,100338.13
2022-12-03T10:21:04.023Z,100338.16
2022-12-03T10:23:31.920Z,100346.31
2022-12-03T10:26:01.271Z,100339.22
2022-12-03T10:28:32.209Z,100334.84
2022-12-03T10:31:01.992Z,100337.53
2022-12-03T10:33:35.254Z,100331.91
2022-12-03T10:36:18.492Z,100330.84
2022-12-03T10:38:46.358Z,100327.56
2022-12-03T10:41:22.552Z,100333.28
2022-12-03T10:43:50.232Z,100323.56
2022-12-03T10:46:20.570Z,100333.44
2022-12-03T10:49:11.653Z,100325.41
2022-12-03T10:51:39.552Z,100326.16
2022-12-03T10:54:22.005Z,100340.19
2022-12-03T10:56:50.890Z,100329.22
2022-12-03T10:59:23.511Z,100337.81
2022-12-03T11:01:53.663Z,100326.53
2022-12-03T11:04:47.744Z,100322.84
2022-12-03T11:07:20.103Z,100318.28
2022-12-03T11:09:52.498Z,100308.31
2022-12-03T11:12:23.393Z,100314.53
2022-12-03T11:14:51.253Z,100306.75
2022-12-03T11:17:51.211Z,100305.41
2022-12-03T11:20:25.079Z,100303.53
2022-12-03T11:22:56.491Z,100305.16
2022-12-03T11:25:27.496Z,100291.47
2022-12-03T11:28:18.074Z,100295.19
2022-12-03T11:30:48.683Z,100294.34
2022-12-03T11:33:25.287Z,100285.28
2022-12-03T11:36:04.992Z,100287.56
2022-12-03T11:38:38.137Z,100299.66
2022-12-03T11:41:22.847Z,100291.66
2022-12-03T11:43:53.087Z,100291.84
2022-12-03T11:46:27.066Z,100286.72
2022-12-03T11:48:56.643Z,100279.09
2022-12-03T11:51:26.693Z,100269.81
2022-12-03T11:53:57.616Z,100268.94
2022-12-03T11:56:30.176Z,100264.34
2022-12-03T11:59:00.411Z,100269.53
2022-12-03T12:01:39.715Z,100262.06
2022-12-03T12:04:26.259Z,100266.78
2022-12-03T12:06:53.909Z,100263.47
2022-12-03T12:09:53.728Z,100264.31
2022-12-03T12:12:33.868Z,100259.97
2022-12-03T12:15:39.656Z,100248.41
2022-12-03T12:18:44.887Z,100251.16
2022-12-03T12:21:40.779Z,100248.03
2022-12-03T12:24:27.673Z,100250.78
2022-12-03T12:26:56.846Z,100252.56
2022-12-03T12:29:24.471Z,100246.19
2022-12-03T12:31:58.351Z,100245.59
2022-12-03T12:34:26.417Z,100250.22
2022-12-03T12:36:55.932Z,100254.84
2022-12-03T12:39:23.835Z,100247.16
2022-12-03T12:41:51.794Z,100239.50
2022-12-03T12:44:20.447Z,100243.22
2022-12-03T12:46:48.870Z,100238.38
2022-12-03T12:49:17.073Z,100230.59
2022-12-03T12:51:46.554Z,100236.53
2022-12-03T12:54:16.087Z,100240.28
2022-12-03T12:56:46.100Z,100239.69
2022-12-03T12:59:21.500Z,100230.97
2022-12-03T13:01:50.249Z,100219.38
2022-12-03T13:04:21.165Z,100225.84
2022-12-03T13:06:51.007Z,100231.47
2022-12-03T13:09:23.985Z,100236.78
2022-12-03T13:11:54.493Z,100236.81
2022-12-03T13:14:24.250Z,100242.47
2022-12-03T13:16:54.842Z,100241.13
2022-12-03T13:19:25.158Z,100235.22
2022-12-03T13:21:58.682Z,100235.22
2022-12-03T13:24:37.465Z,100227.22
2022-12-03T13:27:23.026Z,100222.38
2022-12-03T13:29:57.278Z,100228.81
2022-12-03T13:32:32.152Z,100229.31
2022-12-03T13:35:05.141Z,100231.75
2022-12-03T13:37:33.645Z,100234.88
2022-12-03T13:40:11.850Z,100232.00
2022-12-03T13:42:39.937Z,100227.37
2022-12-03T13:45:16.377Z,100223.56
2022-12-03T13:47:52.151Z,100230.84
2022-12-03T13:50:40.316Z,100223.84
2022-12-03T13:53:11.159Z,100227.59
2022-12-03T13:55:43.859Z,100232.66
2022-12-03T13:58:11.780Z,100240.94
2022-12-03T14:00:39.541Z,100241.50
2022-12-03T14:03:07.565Z,100237.78
2022-12-03T14:05:35.108Z,100239.09
2022-12-03T14:08:03.306Z,100236.94
2022-12-03T14:10:34.402Z,100237.44
2022-12-03T14:13:02.070Z,100238.81
2022-12-03T14:15:31.968Z,100230.41
2022-12-03T14:17:59.925Z,100235.16
2022-12-03T14:20:27.677Z,100236.00
2022-12-03T14:22:59.255Z,100237.09
2022-12-03T14:25:27.530Z,100237.56
2022-12-03T14:27:55.277Z,100239.91
2022-12-03T14:30:26.465Z,100238.56
2022-12-03T14:32:54.425Z,100235.09
2022-12-03T14:35:22.409Z,100231.97
2022-12-03T14:37:49.950Z,100242.41
2022-12-03T14:40:21.478Z,100236.22
2022-12-03T14:42:50.923Z,100235.38
2022-12-03T14:45:18.947Z,100238.88
2022-12-03T14:47:46.579Z,100243.38
2022-12-03T14:50:14.604Z,100247.13
2022-12-03T14:52:42.595Z,100243.34
2022-12-03T14:55:10.199Z,100239.50
2022-12-03T14:57:37.899Z,100235.31
2022-12-03T15:00:08.055Z,100243.50
2022-12-03T15:02:36.143Z,100243.94
2022-12-03T15:05:04.080Z,100245.72
2022-12-03T15:07:32.127Z,100248.75
2022-12-03T15:09:59.876Z,100247.75
2022-12-03T15:12:27.461Z,100248.34
2022-12-03T15:14:55.393Z,100251.66
2022-12-03T15:17:30.890Z,100256.91
2022-12-03T15:19:59.706Z,100260.38
2022-12-03T15:22:27.506Z,100257.66
2022-12-03T15:24:55.122Z,100264.09
2022-12-03T15:27:23.638Z,100275.44
2022-12-03T15:29:51.876Z,100269.53
2022-12-03T15:32:20.165Z,100269.50
2022-12-03T15:34:48.184Z,100272.19
2022-12-03T15:37:16.254Z,100268.47
2022-12-03T15:39:48.511Z,100272.88
2022-12-03T15:42:17.011Z,100276.12
2022-12-03T15:44:46.707Z,100278.00
2022-12-03T15:47:14.425Z,100279.06
2022-12-03T15:49:42.433Z,100273.94
2022-12-03T15:52:10.114Z,100266.38
2022-12-03T15:54:37.673Z,100264.63
2022-12-03T15:57:05.604Z,100256.41
2022-12-03T15:59:33.609Z,100258.22
2022-12-03T16:02:01.492Z,100254.00
2022-12-03T16:04:29.624Z,100261.53
2022-12-03T16:06:57.540Z,100253.38
2022-12-03T16:09:27.625Z,100266.94
2022-12-03T16:11:55.851Z,100261.34
2022-12-03T16:14:23.815Z,100256.00
2022-12-03T16:16:52.293Z,100262.38
2022-12-03T16:19:20.375Z,100261.56
2022-12-03T16:21:48.120Z,100248.09
2022-12-03T16:24:15.875Z,100249.97
2022-12-03T16:26:43.870Z,100258.50
2022-12-03T16:29:11.518Z,100251.34
2022-12-03T16:31:39.193Z,100259.06
2022-12-03T16:34:07.131Z,100262.50
2022-12-03T16:36:34.727Z,100255.84
2022-12-03T16:39:02.339Z,100258.22
2022-12-03T16:41:30.350Z,100261.69
2022-12-03T16:43:58.448Z,100260.78
2022-12-03T16:46:26.414Z,100262.44
2022-12-03T16:48:56.014Z,100262.22
2022-12-03T16:51:26.713Z,100257.91
2022-12-03T16:53:55.127Z,100256.41
2022-12-03T16:56:23.366Z,100251.09
2022-12-03T16:58:51.136Z,100248.19
2022-12-03T17:01:19.172Z,100243.84
2022-12-03T17:03:46.923Z,100245.00
2022-12-03T17:06:14.972Z,100248.84
2022-12-03T17:08:48.761Z,100245.50
2022-12-03T17:11:17.557Z,100241.47
2022-12-03T17:13:45.974Z,100243.81
2022-12-03T17:16:14.074Z,100251.81
2022-12-03T17:18:41.788Z,100244.59
2022-12-03T17:21:09.782Z,100243.47
2022-12-03T17:23:37.557Z,100234.91
2022-12-03T17:26:05.207Z,100239.81
2022-12-03T17:28:33.142Z,100246.06
2022-12-03T17:31:01.056Z,100243.47
2022-12-03T17:33:28.763Z,100244.37
2022-12-03T17:35:59.258Z,100240.00
2022-12-03T17:38:27.041Z,100243.84
2022-12-03T17:40:55.112Z,100243.22
2022-12-03T17:43:23.668Z,100249.28
2022-12-03T17:45:51.430Z,100257.97
2022-12-03T17:48:19.135Z,100255.69
2022-12-03T17:50:47.559Z,100252.12
2022-12-03T17:53:15.405Z,100250.72
2022-12-03T17:55:45.137Z,100250.91
2022-12-03T17:58:13.640Z,100248.09
2022-12-03T18:00:43.879Z,100245.41
2022-12-03T18:03:11.895Z,100251.09
2022-12-03T18:05:39.550Z,100243.25
2022-12-03T18:08:07.758Z,100249.00
2022-12-03T18:10:35.997Z,100243.56
2022-12-03T18:13:03.624Z,100247.28
2022-12-03T18:15:32.466Z,100254.03
2022-12-03T18:18:01.612Z,100248.62
2022-12-03T18:20:29.278Z,100256.56
2022-12-03T18:23:00.102Z,100247.94
2022-12-03T18:25:28.491Z,100250.75
2022-12-03T18:27:56.764Z,100246.22
2022-12-03T18:30:24.815Z,100249.50
2022-12-03T18:32:52.732Z,100251.66
2022-12-03T18:35:20.581Z,100251.03
2022-12-03T18:37:50.162Z,100257.41
2022-12-03T18:40:22.515Z,100254.19
2022-12-03T18:42:50.136Z,100256.63
2022-12-03T18:45:18.658Z,100250.13
2022-12-03T18:47:48.445Z,100253.72
2022-12-03T18:50:16.441Z,100254.28
2022-12-03T18:52:45.980Z,100253.53
2022-12-03T18:55:18.669Z,100256.94
2022-12-03T18:57:46.656Z,100255.97
2022-12-03T19:00:15.139Z,100256.38
2022-12-03T19:05:32.583Z,100259.44
2022-12-03T19:08:00.841Z,100257.63
2022-12-03T19:10:28.599Z,100253.66
2022-12-03T19:12:57.139Z,100250.56
2022-12-03T19:15:24.966Z,100247.09
2022-12-03T19:17:52.532Z,100249.03
2022-12-03T19:20:20.758Z,100264.91
2022-12-03T19:22:48.707Z,100257.34
2022-12-03T19:25:17.752Z,100264.13
2022-12-03T19:27:45.927Z,100266.22
2022-12-03T19:30:14.970Z,100268.56
2022-12-03T19:32:42.766Z,100260.47
2022-12-03T19:35:10.954Z,100266.78
2022-12-03T19:37:38.720Z,100266.22
2022-12-03T19:40:07.322Z,100266.38
2022-12-03T19:42:35.633Z,100264.44
2022-12-03T19:45:03.649Z,100266.22
2022-12-03T19:47:31.626Z,100264.13
2022-12-03T19:50:00.314Z,100264.81
2022-12-03T19:52:27.996Z,100265.38
2022-12-03T19:54:55.886Z,100275.56
2022-12-03T19:57:24.395Z,100268.94
2022-12-03T19:59:52.487Z,100272.50
2022-12-03T20:02:20.704Z,100276.22
2022-12-03T20:04:49.024Z,100269.50
2022-12-03T20:07:17.211Z,100277.03
2022-12-03T20:09:45.329Z,100272.50
2022-12-03T20:12:13.528Z,100275.78
2022-12-03T20:14:41.406Z,100276.28
2022-12-03T20:17:09.403Z,100269.44
2022-12-03T20:19:37.597Z,100270.16
2022-12-03T20:22:05.432Z,100273.72
2022-12-03T20:24:33.351Z,100273.72
2022-12-03T20:27:01.250Z,100272.75
2022-12-03T20:29:29.657Z,100278.22
2022-12-03T20:31:57.560Z,100279.69
2022-12-03T20:34:25.725Z,100272.25
2022-12-03T20:36:53.739Z,100269.44
2022-12-03T20:39:22.026Z,100274.63
2022-12-03T20:41:50.312Z,100267.50
2022-12-03T20:44:18.511Z,100270.41
2022-12-03T20:46:46.225Z,100275.75
2022-12-03T20:49:14.338Z,100271.84
2022-12-03T20:51:42.336Z,100263.94
2022-12-03T20:54:10.218Z,100268.31
2022-12-03T20:56:38.556Z,100272.03
2022-12-03T20:59:08.812Z,100267.91
2022-12-03T21:01:37.025Z,100273.38
2022-12-03T21:04:06.747Z,100267.75
2022-12-03T21:06:35.851Z,100263.41
2022-12-03T21:09:06.878Z,100266.94
2022-12-03T21:11:36.106Z,100269.94
2022-12-03T21:14:04.830Z,100269.53
2022-12-03T21:19:23.785Z,100263.87
2022-12-03T21:21:51.647Z,100258.63
2022-12-03T21:24:20.576Z,100258.88
2022-12-03T21:26:48.539Z,100257.91
2022-12-03T21:29:16.648Z,100252.59
2022-12-03T21:31:44.288Z,100261.88
2022-12-03T21:34:12.588Z,100255.16
2022-12-03T21:36:40.403Z,100264.44
2022-12-03T21:39:08.304Z,100272.81
2022-12-03T21:41:36.283Z,100268.94
2022-12-03T21:44:04.397Z,100271.13
2022-12-03T21:47:09.746Z,100270.91
2022-12-03T21:49:21.128Z,100268.88
2022-12-03T21:51:48.991Z,100268.13
2022-12-03T21:54:16.959Z,100274.50
2022-12-03T21:56:44.919Z,100268.00
2022-12-03T21:59:12.854Z,100255.50
2022-12-03T22:01:44.157Z,100254.44
2022-12-03T22:04:15.204Z,100257.97
2022-12-03T22:06:43.177Z,100254.84
2022-12-03T22:09:10.823Z,100261.22
2022-12-03T22:11:38.788Z,100264.28
2022-12-03T22:14:06.599Z,100262.47
2022-12-03T22:16:34.616Z,100254.94
2022-12-03T22:19:03.159Z,100256.06
2022-12-03T22:21:31.267Z,100261.34
2022-12-03T22:23:58.943Z,100262.44
2022-12-03T22:26:26.821Z,100262.47
2022-12-03T22:28:54.612Z,100262.34
2022-12-03T22:31:22.618Z,100263.87
2022-12-03T22:33:50.579Z,100260.78
2022-12-03T22:36:21.472Z,100256.72
2022-12-03T22:38:50.346Z,100256.03
2022-12-03T22:41:18.893Z,100253.69
2022-12-03T22:43:47.457Z,100250.56
2022-12-03T22:46:15.867Z,100258.47
2022-12-03T22:48:45.573Z,100255.47
2022-12-03T22:51:21.478Z,100254.09
2022-12-03T22:53:57.432Z,100259.44
2022-12-03T22:56:25.900Z,100248.38
2022-12-03T22:58:54.158Z,100259.50
2022-12-03T23:01:24.888Z,100256.75
2022-12-03T23:03:52.974Z,100251.97
2022-12-03T23:06:21.597Z,100256.56
2022-12-03T23:08:49.570Z,100248.91
2022-12-03T23:11:17.268Z,100255.59
2022-12-03T23:13:45.183Z,100250.69
2022-12-03T23:16:15.566Z,100242.06
2022-12-03T23:18:43.758Z,100254.75
2022-12-03T23:21:25.422Z,100251.50
2022-12-03T23:23:58.056Z,100246.97
2022-12-03T23:26:26.571Z,100253.56
2022-12-03T23:28:54.339Z,100248.78
2022-12-03T23:31:28.006Z,100247.63
2022-12-03T23:33:56.193Z,100246.41
2022-12-03T23:36:25.039Z,100238.91
2022-12-03T23:38:52.739Z,100236.41
2022-12-03T23:41:22.926Z,100243.84
2022-12-03T23:43:50.879Z,100238.59
2022-12-03T23:46:20.808Z,100237.94
2022-12-03T23:48:49.451Z,100240.00
2022-12-03T23:51:20.709Z,100238.59
2022-12-03T23:53:48.381Z,100233.78
2022-12-03T23:56:19.550Z,100240.37
2022-12-03T23:58:47.721Z,100227.06
